sensor_id;sensor_type;location;lat;lon;timestamp;temperature;humidity
52979;DHT22;63430;53.186;6.598;2023-04-08T00:00:50;4.30;99.90
52979;DHT22;63430;53.186;6.598;2023-04-08T00:02:52;4.30;99.90
52979;DHT22;63430;53.186;6.598;2023-04-08T00:04:55;4.30;99.90
52979;DHT22;63430;53.186;6.598;2023-04-08T00:06:58;4.20;99.90
52979;DHT22;63430;53.186;6.598;2023-04-08T00:09:04;4.30;99.90
52979;DHT22;63430;53.186;6.598;2023-04-08T00:11:13;4.30;99.90
52979;DHT22;63430;53.186;6.598;2023-04-08T00:13:24;4.30;99.90
52979;DHT22;63430;53.186;6.598;2023-04-08T00:15:27;4.40;99.90
52979;DHT22;63430;53.186;6.598;2023-04-08T00:17:30;4.20;99.90
52979;DHT22;63430;53.186;6.598;2023-04-08T00:19:42;4.20;99.90
52979;DHT22;63430;53.186;6.598;2023-04-08T00:21:46;4.30;99.90
52979;DHT22;63430;53.186;6.598;2023-04-08T00:23:49;4.20;99.90
52979;DHT22;63430;53.186;6.598;2023-04-08T00:25:54;4.20;99.90
52979;DHT22;63430;53.186;6.598;2023-04-08T00:27:57;4.20;99.90
52979;DHT22;63430;53.186;6.598;2023-04-08T00:30:00;4.20;99.90
52979;DHT22;63430;53.186;6.598;2023-04-08T00:32:06;4.20;99.90
52979;DHT22;63430;53.186;6.598;2023-04-08T00:34:09;4.10;99.90
52979;DHT22;63430;53.186;6.598;2023-04-08T00:36:13;4.10;99.90
52979;DHT22;63430;53.186;6.598;2023-04-08T00:38:15;4.10;99.90
52979;DHT22;63430;53.186;6.598;2023-04-08T00:40:19;4.10;99.90
52979;DHT22;63430;53.186;6.598;2023-04-08T00:42:24;4.10;99.90
52979;DHT22;63430;53.186;6.598;2023-04-08T00:44:28;4.10;99.90
52979;DHT22;63430;53.186;6.598;2023-04-08T00:46:34;4.10;99.90
52979;DHT22;63430;53.186;6.598;2023-04-08T00:48:38;4.10;99.90
52979;DHT22;63430;53.186;6.598;2023-04-08T00:50:42;4.00;99.90
52979;DHT22;63430;53.186;6.598;2023-04-08T00:52:45;4.00;99.90
52979;DHT22;63430;53.186;6.598;2023-04-08T00:54:48;4.10;99.90
52979;DHT22;63430;53.186;6.598;2023-04-08T00:56:51;4.00;99.90
52979;DHT22;63430;53.186;6.598;2023-04-08T00:58:57;4.00;99.90
52979;DHT22;63430;53.186;6.598;2023-04-08T01:01:04;3.90;99.90
52979;DHT22;63430;53.186;6.598;2023-04-08T01:03:30;3.90;99.90
52979;DHT22;63430;53.186;6.598;2023-04-08T01:05:43;3.90;99.90
52979;DHT22;63430;53.186;6.598;2023-04-08T01:07:53;3.90;99.90
52979;DHT22;63430;53.186;6.598;2023-04-08T01:10:01;3.90;99.90
52979;DHT22;63430;53.186;6.598;2023-04-08T01:12:07;3.90;99.90
52979;DHT22;63430;53.186;6.598;2023-04-08T01:14:16;3.80;99.90
52979;DHT22;63430;53.186;6.598;2023-04-08T01:16:19;3.80;99.90
52979;DHT22;63430;53.186;6.598;2023-04-08T01:18:34;3.70;99.90
52979;DHT22;63430;53.186;6.598;2023-04-08T01:20:39;3.70;99.90
52979;DHT22;63430;53.186;6.598;2023-04-08T01:22:59;4.00;99.90
52979;DHT22;63430;53.186;6.598;2023-04-08T01:25:09;3.70;99.90
52979;DHT22;63430;53.186;6.598;2023-04-08T01:27:17;3.70;99.90
52979;DHT22;63430;53.186;6.598;2023-04-08T01:29:20;3.60;99.90
52979;DHT22;63430;53.186;6.598;2023-04-08T01:31:23;3.60;99.90
52979;DHT22;63430;53.186;6.598;2023-04-08T01:33:27;3.60;99.90
52979;DHT22;63430;53.186;6.598;2023-04-08T01:35:31;3.60;99.90
52979;DHT22;63430;53.186;6.598;2023-04-08T01:37:35;3.50;99.90
52979;DHT22;63430;53.186;6.598;2023-04-08T01:39:39;3.50;99.90
52979;DHT22;63430;53.186;6.598;2023-04-08T01:41:43;3.50;99.90
52979;DHT22;63430;53.186;6.598;2023-04-08T01:43:49;3.50;99.90
52979;DHT22;63430;53.186;6.598;2023-04-08T01:45:54;3.40;99.90
52979;DHT22;63430;53.186;6.598;2023-04-08T01:48:00;3.40;99.90
52979;DHT22;63430;53.186;6.598;2023-04-08T01:50:06;3.40;99.90
52979;DHT22;63430;53.186;6.598;2023-04-08T01:52:10;3.40;99.90
52979;DHT22;63430;53.186;6.598;2023-04-08T01:54:15;4.10;99.90
52979;DHT22;63430;53.186;6.598;2023-04-08T01:56:24;3.30;99.90
52979;DHT22;63430;53.186;6.598;2023-04-08T01:58:31;3.40;99.90
52979;DHT22;63430;53.186;6.598;2023-04-08T02:00:40;3.30;99.90
52979;DHT22;63430;53.186;6.598;2023-04-08T02:02:49;3.30;99.90
52979;DHT22;63430;53.186;6.598;2023-04-08T02:04:53;3.30;99.90
52979;DHT22;63430;53.186;6.598;2023-04-08T02:06:56;3.30;99.90
52979;DHT22;63430;53.186;6.598;2023-04-08T02:09:00;3.30;99.90
52979;DHT22;63430;53.186;6.598;2023-04-08T02:11:05;3.30;99.90
52979;DHT22;63430;53.186;6.598;2023-04-08T02:13:08;3.30;99.90
52979;DHT22;63430;53.186;6.598;2023-04-08T02:15:11;3.30;99.90
52979;DHT22;63430;53.186;6.598;2023-04-08T02:17:20;3.20;99.90
52979;DHT22;63430;53.186;6.598;2023-04-08T02:19:28;3.20;99.90
52979;DHT22;63430;53.186;6.598;2023-04-08T02:21:37;3.20;99.90
52979;DHT22;63430;53.186;6.598;2023-04-08T02:23:45;3.20;99.90
52979;DHT22;63430;53.186;6.598;2023-04-08T02:25:54;3.20;99.90
52979;DHT22;63430;53.186;6.598;2023-04-08T02:28:04;3.10;99.90
52979;DHT22;63430;53.186;6.598;2023-04-08T02:30:10;3.10;99.90
52979;DHT22;63430;53.186;6.598;2023-04-08T02:32:16;3.20;99.90
52979;DHT22;63430;53.186;6.598;2023-04-08T02:34:20;3.10;99.90
52979;DHT22;63430;53.186;6.598;2023-04-08T02:36:24;3.00;99.90
52979;DHT22;63430;53.186;6.598;2023-04-08T02:38:28;3.00;99.90
52979;DHT22;63430;53.186;6.598;2023-04-08T02:40:32;3.00;99.90
52979;DHT22;63430;53.186;6.598;2023-04-08T02:42:38;3.10;99.90
52979;DHT22;63430;53.186;6.598;2023-04-08T02:44:40;3.00;99.90
52979;DHT22;63430;53.186;6.598;2023-04-08T02:46:43;3.70;99.90
52979;DHT22;63430;53.186;6.598;2023-04-08T02:48:48;3.00;99.90
52979;DHT22;63430;53.186;6.598;2023-04-08T02:50:52;3.00;99.90
52979;DHT22;63430;53.186;6.598;2023-04-08T02:53:14;3.00;99.90
52979;DHT22;63430;53.186;6.598;2023-04-08T02:55:17;3.00;99.90
52979;DHT22;63430;53.186;6.598;2023-04-08T02:57:21;2.90;99.90
52979;DHT22;63430;53.186;6.598;2023-04-08T02:59:23;2.90;99.90
52979;DHT22;63430;53.186;6.598;2023-04-08T03:01:27;2.90;99.90
52979;DHT22;63430;53.186;6.598;2023-04-08T03:03:30;2.90;99.90
52979;DHT22;63430;53.186;6.598;2023-04-08T03:05:36;2.90;99.90
52979;DHT22;63430;53.186;6.598;2023-04-08T03:07:38;2.90;99.90
52979;DHT22;63430;53.186;6.598;2023-04-08T03:09:41;2.90;99.90
52979;DHT22;63430;53.186;6.598;2023-04-08T03:11:44;2.80;99.90
52979;DHT22;63430;53.186;6.598;2023-04-08T03:13:47;2.80;99.90
52979;DHT22;63430;53.186;6.598;2023-04-08T03:15:50;2.90;99.90
52979;DHT22;63430;53.186;6.598;2023-04-08T03:17:52;2.80;99.90
52979;DHT22;63430;53.186;6.598;2023-04-08T03:19:55;2.80;99.90
52979;DHT22;63430;53.186;6.598;2023-04-08T03:22:00;3.00;99.90
52979;DHT22;63430;53.186;6.598;2023-04-08T03:24:03;2.80;99.90
52979;DHT22;63430;53.186;6.598;2023-04-08T03:26:06;2.80;99.90
52979;DHT22;63430;53.186;6.598;2023-04-08T03:28:09;2.80;99.90
52979;DHT22;63430;53.186;6.598;2023-04-08T03:30:12;2.80;99.90
52979;DHT22;63430;53.186;6.598;2023-04-08T03:32:15;2.70;99.90
52979;DHT22;63430;53.186;6.598;2023-04-08T03:34:18;2.70;99.90
52979;DHT22;63430;53.186;6.598;2023-04-08T03:36:20;2.70;99.90
52979;DHT22;63430;53.186;6.598;2023-04-08T03:38:26;2.60;99.90
52979;DHT22;63430;53.186;6.598;2023-04-08T03:40:28;2.60;99.90
52979;DHT22;63430;53.186;6.598;2023-04-08T03:42:31;3.80;99.90
52979;DHT22;63430;53.186;6.598;2023-04-08T03:44:36;2.60;99.90
52979;DHT22;63430;53.186;6.598;2023-04-08T03:46:38;2.60;99.90
52979;DHT22;63430;53.186;6.598;2023-04-08T03:48:41;2.60;99.90
52979;DHT22;63430;53.186;6.598;2023-04-08T03:50:43;2.60;99.90
52979;DHT22;63430;53.186;6.598;2023-04-08T03:52:46;2.60;99.90
52979;DHT22;63430;53.186;6.598;2023-04-08T03:54:51;2.60;99.90
52979;DHT22;63430;53.186;6.598;2023-04-08T03:56:55;2.60;99.90
52979;DHT22;63430;53.186;6.598;2023-04-08T03:58:59;2.60;99.90
52979;DHT22;63430;53.186;6.598;2023-04-08T04:01:01;2.50;99.90
52979;DHT22;63430;53.186;6.598;2023-04-08T04:03:15;2.50;99.90
52979;DHT22;63430;53.186;6.598;2023-04-08T04:05:21;2.50;99.90
52979;DHT22;63430;53.186;6.598;2023-04-08T04:07:25;2.50;99.90
52979;DHT22;63430;53.186;6.598;2023-04-08T04:09:27;2.50;99.90
52979;DHT22;63430;53.186;6.598;2023-04-08T04:11:33;2.50;99.90
52979;DHT22;63430;53.186;6.598;2023-04-08T04:13:36;2.50;99.90
52979;DHT22;63430;53.186;6.598;2023-04-08T04:15:39;2.50;99.90
52979;DHT22;63430;53.186;6.598;2023-04-08T04:17:42;2.50;99.90
52979;DHT22;63430;53.186;6.598;2023-04-08T04:19:44;2.50;99.90
52979;DHT22;63430;53.186;6.598;2023-04-08T04:21:47;2.40;99.90
52979;DHT22;63430;53.186;6.598;2023-04-08T04:23:49;2.50;99.90
52979;DHT22;63430;53.186;6.598;2023-04-08T04:26:06;2.50;99.90
52979;DHT22;63430;53.186;6.598;2023-04-08T04:28:11;2.50;99.90
52979;DHT22;63430;53.186;6.598;2023-04-08T04:30:14;2.60;99.90
52979;DHT22;63430;53.186;6.598;2023-04-08T04:32:17;2.60;99.90
52979;DHT22;63430;53.186;6.598;2023-04-08T04:34:20;2.60;99.90
52979;DHT22;63430;53.186;6.598;2023-04-08T04:36:23;2.60;99.90
52979;DHT22;63430;53.186;6.598;2023-04-08T04:38:26;2.60;99.90
52979;DHT22;63430;53.186;6.598;2023-04-08T04:40:30;2.60;99.90
52979;DHT22;63430;53.186;6.598;2023-04-08T04:42:33;2.60;99.90
52979;DHT22;63430;53.186;6.598;2023-04-08T04:44:38;2.60;99.90
52979;DHT22;63430;53.186;6.598;2023-04-08T04:46:41;2.60;99.90
52979;DHT22;63430;53.186;6.598;2023-04-08T04:48:43;2.60;99.90
52979;DHT22;63430;53.186;6.598;2023-04-08T04:50:54;2.60;99.90
52979;DHT22;63430;53.186;6.598;2023-04-08T04:52:57;2.60;99.90
52979;DHT22;63430;53.186;6.598;2023-04-08T04:54:59;3.10;99.90
52979;DHT22;63430;53.186;6.598;2023-04-08T04:57:02;2.60;99.90
52979;DHT22;63430;53.186;6.598;2023-04-08T04:59:05;2.80;99.90
52979;DHT22;63430;53.186;6.598;2023-04-08T05:01:11;2.60;99.90
52979;DHT22;63430;53.186;6.598;2023-04-08T05:03:15;2.60;99.90
52979;DHT22;63430;53.186;6.598;2023-04-08T05:05:18;2.60;99.90
52979;DHT22;63430;53.186;6.598;2023-04-08T05:07:21;2.60;99.90
52979;DHT22;63430;53.186;6.598;2023-04-08T05:09:24;2.60;99.90
52979;DHT22;63430;53.186;6.598;2023-04-08T05:11:26;2.60;99.90
52979;DHT22;63430;53.186;6.598;2023-04-08T05:13:31;2.60;99.90
52979;DHT22;63430;53.186;6.598;2023-04-08T05:15:35;2.70;99.90
52979;DHT22;63430;53.186;6.598;2023-04-08T05:17:40;2.70;99.90
52979;DHT22;63430;53.186;6.598;2023-04-08T05:19:43;2.70;99.90
52979;DHT22;63430;53.186;6.598;2023-04-08T05:21:46;2.70;99.90
52979;DHT22;63430;53.186;6.598;2023-04-08T05:23:49;2.80;99.90
52979;DHT22;63430;53.186;6.598;2023-04-08T05:25:58;2.80;99.90
52979;DHT22;63430;53.186;6.598;2023-04-08T05:28:01;2.80;99.90
52979;DHT22;63430;53.186;6.598;2023-04-08T05:30:06;2.80;99.90
52979;DHT22;63430;53.186;6.598;2023-04-08T05:32:10;2.90;99.90
52979;DHT22;63430;53.186;6.598;2023-04-08T05:34:18;2.90;99.90
52979;DHT22;63430;53.186;6.598;2023-04-08T05:36:24;3.00;99.90
52979;DHT22;63430;53.186;6.598;2023-04-08T05:38:28;3.10;99.90
52979;DHT22;63430;53.186;6.598;2023-04-08T05:40:31;3.20;99.90
52979;DHT22;63430;53.186;6.598;2023-04-08T05:42:34;3.30;99.90
52979;DHT22;63430;53.186;6.598;2023-04-08T05:44:43;3.30;99.90
52979;DHT22;63430;53.186;6.598;2023-04-08T05:46:45;3.40;99.90
52979;DHT22;63430;53.186;6.598;2023-04-08T05:48:48;3.50;99.90
52979;DHT22;63430;53.186;6.598;2023-04-08T05:50:54;3.60;99.90
52979;DHT22;63430;53.186;6.598;2023-04-08T05:52:58;3.70;99.90
52979;DHT22;63430;53.186;6.598;2023-04-08T05:55:00;3.90;99.90
52979;DHT22;63430;53.186;6.598;2023-04-08T05:57:03;4.00;99.90
52979;DHT22;63430;53.186;6.598;2023-04-08T05:59:06;4.10;99.90
52979;DHT22;63430;53.186;6.598;2023-04-08T06:01:09;4.20;99.90
52979;DHT22;63430;53.186;6.598;2023-04-08T06:03:12;4.30;99.90
52979;DHT22;63430;53.186;6.598;2023-04-08T06:05:15;4.40;99.90
52979;DHT22;63430;53.186;6.598;2023-04-08T06:07:20;4.50;99.90
52979;DHT22;63430;53.186;6.598;2023-04-08T06:09:23;4.70;99.90
52979;DHT22;63430;53.186;6.598;2023-04-08T06:11:26;4.80;99.90
52979;DHT22;63430;53.186;6.598;2023-04-08T06:13:29;4.90;99.90
52979;DHT22;63430;53.186;6.598;2023-04-08T06:15:31;5.00;99.90
52979;DHT22;63430;53.186;6.598;2023-04-08T06:17:36;5.10;99.90
52979;DHT22;63430;53.186;6.598;2023-04-08T06:19:39;5.20;99.90
52979;DHT22;63430;53.186;6.598;2023-04-08T06:21:41;5.30;99.90
52979;DHT22;63430;53.186;6.598;2023-04-08T06:23:47;5.40;99.90
52979;DHT22;63430;53.186;6.598;2023-04-08T06:25:49;5.50;99.90
52979;DHT22;63430;53.186;6.598;2023-04-08T06:27:54;5.70;99.90
52979;DHT22;63430;53.186;6.598;2023-04-08T06:29:56;5.80;99.90
52979;DHT22;63430;53.186;6.598;2023-04-08T06:31:59;5.80;99.90
52979;DHT22;63430;53.186;6.598;2023-04-08T06:34:02;5.80;99.90
52979;DHT22;63430;53.186;6.598;2023-04-08T06:36:06;5.80;99.90
52979;DHT22;63430;53.186;6.598;2023-04-08T06:38:09;5.80;99.90
52979;DHT22;63430;53.186;6.598;2023-04-08T06:40:14;5.70;99.90
52979;DHT22;63430;53.186;6.598;2023-04-08T06:42:16;5.80;99.90
52979;DHT22;63430;53.186;6.598;2023-04-08T06:44:46;5.80;99.90
52979;DHT22;63430;53.186;6.598;2023-04-08T06:46:48;5.90;99.90
52979;DHT22;63430;53.186;6.598;2023-04-08T06:48:51;5.90;99.90
52979;DHT22;63430;53.186;6.598;2023-04-08T06:50:54;5.90;99.90
52979;DHT22;63430;53.186;6.598;2023-04-08T06:52:57;5.90;99.90
52979;DHT22;63430;53.186;6.598;2023-04-08T06:55:00;6.00;99.90
52979;DHT22;63430;53.186;6.598;2023-04-08T06:57:05;6.00;99.90
52979;DHT22;63430;53.186;6.598;2023-04-08T06:59:09;6.00;99.90
52979;DHT22;63430;53.186;6.598;2023-04-08T07:01:11;6.10;99.90
52979;DHT22;63430;53.186;6.598;2023-04-08T07:03:16;6.20;99.90
52979;DHT22;63430;53.186;6.598;2023-04-08T07:05:18;6.20;99.90
52979;DHT22;63430;53.186;6.598;2023-04-08T07:07:21;6.20;99.90
52979;DHT22;63430;53.186;6.598;2023-04-08T07:09:25;6.20;99.90
52979;DHT22;63430;53.186;6.598;2023-04-08T07:11:28;6.20;99.90
52979;DHT22;63430;53.186;6.598;2023-04-08T07:13:33;6.30;99.90
52979;DHT22;63430;53.186;6.598;2023-04-08T07:15:35;6.40;99.90
52979;DHT22;63430;53.186;6.598;2023-04-08T07:17:41;6.50;99.90
52979;DHT22;63430;53.186;6.598;2023-04-08T07:19:44;6.50;99.90
52979;DHT22;63430;53.186;6.598;2023-04-08T07:21:47;6.50;99.90
52979;DHT22;63430;53.186;6.598;2023-04-08T07:23:49;6.70;99.90
52979;DHT22;63430;53.186;6.598;2023-04-08T07:25:52;6.60;99.90
52979;DHT22;63430;53.186;6.598;2023-04-08T07:27:55;6.60;99.90
52979;DHT22;63430;53.186;6.598;2023-04-08T07:30:00;6.60;99.90
52979;DHT22;63430;53.186;6.598;2023-04-08T07:32:04;6.60;99.90
52979;DHT22;63430;53.186;6.598;2023-04-08T07:34:07;6.60;99.90
52979;DHT22;63430;53.186;6.598;2023-04-08T07:36:10;6.60;99.90
52979;DHT22;63430;53.186;6.598;2023-04-08T07:38:14;6.60;99.90
52979;DHT22;63430;53.186;6.598;2023-04-08T07:40:17;6.70;99.90
52979;DHT22;63430;53.186;6.598;2023-04-08T07:42:21;6.70;99.90
52979;DHT22;63430;53.186;6.598;2023-04-08T07:44:23;6.80;99.90
52979;DHT22;63430;53.186;6.598;2023-04-08T07:46:29;6.80;99.90
52979;DHT22;63430;53.186;6.598;2023-04-08T07:48:33;6.80;99.90
52979;DHT22;63430;53.186;6.598;2023-04-08T07:50:36;6.90;99.90
52979;DHT22;63430;53.186;6.598;2023-04-08T07:52:59;6.90;99.90
52979;DHT22;63430;53.186;6.598;2023-04-08T07:55:02;7.00;99.90
52979;DHT22;63430;53.186;6.598;2023-04-08T07:57:08;7.10;99.90
52979;DHT22;63430;53.186;6.598;2023-04-08T07:59:12;7.10;99.90
52979;DHT22;63430;53.186;6.598;2023-04-08T08:01:16;7.20;99.90
52979;DHT22;63430;53.186;6.598;2023-04-08T08:03:22;7.20;99.90
52979;DHT22;63430;53.186;6.598;2023-04-08T08:05:31;7.20;99.90
52979;DHT22;63430;53.186;6.598;2023-04-08T08:07:37;7.30;99.90
52979;DHT22;63430;53.186;6.598;2023-04-08T08:09:40;7.20;99.90
52979;DHT22;63430;53.186;6.598;2023-04-08T08:11:43;7.20;99.90
52979;DHT22;63430;53.186;6.598;2023-04-08T08:13:49;7.30;99.90
52979;DHT22;63430;53.186;6.598;2023-04-08T08:15:52;7.60;99.90
52979;DHT22;63430;53.186;6.598;2023-04-08T08:17:55;7.20;99.90
52979;DHT22;63430;53.186;6.598;2023-04-08T08:20:01;7.10;99.90
52979;DHT22;63430;53.186;6.598;2023-04-08T08:22:05;7.20;99.90
52979;DHT22;63430;53.186;6.598;2023-04-08T08:24:08;7.20;99.90
52979;DHT22;63430;53.186;6.598;2023-04-08T08:26:11;7.20;99.90
52979;DHT22;63430;53.186;6.598;2023-04-08T08:28:19;7.20;99.90
52979;DHT22;63430;53.186;6.598;2023-04-08T08:30:22;7.20;99.90
52979;DHT22;63430;53.186;6.598;2023-04-08T08:32:24;7.10;99.90
52979;DHT22;63430;53.186;6.598;2023-04-08T08:34:27;7.10;99.90
52979;DHT22;63430;53.186;6.598;2023-04-08T08:36:32;7.50;99.90
52979;DHT22;63430;53.186;6.598;2023-04-08T08:38:36;7.10;99.90
52979;DHT22;63430;53.186;6.598;2023-04-08T08:40:38;7.10;99.90
52979;DHT22;63430;53.186;6.598;2023-04-08T08:42:41;7.10;99.90
52979;DHT22;63430;53.186;6.598;2023-04-08T08:44:44;7.10;99.90
52979;DHT22;63430;53.186;6.598;2023-04-08T08:46:47;7.10;99.90
52979;DHT22;63430;53.186;6.598;2023-04-08T08:48:50;7.10;99.90
52979;DHT22;63430;53.186;6.598;2023-04-08T08:50:52;7.20;99.90
52979;DHT22;63430;53.186;6.598;2023-04-08T08:52:58;7.20;99.90
52979;DHT22;63430;53.186;6.598;2023-04-08T08:55:08;7.20;99.90
52979;DHT22;63430;53.186;6.598;2023-04-08T08:57:30;7.20;99.90
52979;DHT22;63430;53.186;6.598;2023-04-08T08:59:38;7.30;99.90
52979;DHT22;63430;53.186;6.598;2023-04-08T09:01:41;7.30;99.90
52979;DHT22;63430;53.186;6.598;2023-04-08T09:03:45;7.40;99.90
52979;DHT22;63430;53.186;6.598;2023-04-08T09:05:52;8.20;99.90
52979;DHT22;63430;53.186;6.598;2023-04-08T09:07:57;7.40;99.90
52979;DHT22;63430;53.186;6.598;2023-04-08T09:09:59;7.30;99.90
52979;DHT22;63430;53.186;6.598;2023-04-08T09:12:03;7.30;99.90
52979;DHT22;63430;53.186;6.598;2023-04-08T09:14:21;7.20;99.90
52979;DHT22;63430;53.186;6.598;2023-04-08T09:16:30;7.20;99.90
52979;DHT22;63430;53.186;6.598;2023-04-08T09:18:34;7.10;99.90
52979;DHT22;63430;53.186;6.598;2023-04-08T09:20:51;7.10;99.90
52979;DHT22;63430;53.186;6.598;2023-04-08T09:23:00;7.10;99.90
52979;DHT22;63430;53.186;6.598;2023-04-08T09:25:21;7.00;99.90
52979;DHT22;63430;53.186;6.598;2023-04-08T09:27:33;7.10;99.90
52979;DHT22;63430;53.186;6.598;2023-04-08T09:29:36;7.10;99.90
52979;DHT22;63430;53.186;6.598;2023-04-08T09:31:41;7.10;99.90
52979;DHT22;63430;53.186;6.598;2023-04-08T09:33:43;7.10;99.90
52979;DHT22;63430;53.186;6.598;2023-04-08T09:35:46;7.10;99.90
52979;DHT22;63430;53.186;6.598;2023-04-08T09:37:50;7.10;99.90
52979;DHT22;63430;53.186;6.598;2023-04-08T09:39:55;7.20;99.90
52979;DHT22;63430;53.186;6.598;2023-04-08T09:41:58;7.20;99.90
52979;DHT22;63430;53.186;6.598;2023-04-08T09:44:06;7.30;99.90
52979;DHT22;63430;53.186;6.598;2023-04-08T09:46:10;7.40;99.90
52979;DHT22;63430;53.186;6.598;2023-04-08T09:48:17;7.50;99.90
52979;DHT22;63430;53.186;6.598;2023-04-08T09:50:26;7.60;99.90
52979;DHT22;63430;53.186;6.598;2023-04-08T09:52:35;7.80;99.90
52979;DHT22;63430;53.186;6.598;2023-04-08T09:54:47;7.90;99.90
52979;DHT22;63430;53.186;6.598;2023-04-08T09:57:00;8.00;99.90
52979;DHT22;63430;53.186;6.598;2023-04-08T09:59:12;8.10;99.90
52979;DHT22;63430;53.186;6.598;2023-04-08T10:01:25;8.20;99.90
52979;DHT22;63430;53.186;6.598;2023-04-08T10:03:34;8.30;99.90
52979;DHT22;63430;53.186;6.598;2023-04-08T10:05:41;8.40;99.90
52979;DHT22;63430;53.186;6.598;2023-04-08T10:07:47;8.60;99.90
52979;DHT22;63430;53.186;6.598;2023-04-08T10:09:51;8.70;99.90
52979;DHT22;63430;53.186;6.598;2023-04-08T10:11:57;8.70;99.90
52979;DHT22;63430;53.186;6.598;2023-04-08T10:14:00;8.70;99.90
52979;DHT22;63430;53.186;6.598;2023-04-08T10:16:18;8.70;99.90
52979;DHT22;63430;53.186;6.598;2023-04-08T10:18:31;8.70;99.90
52979;DHT22;63430;53.186;6.598;2023-04-08T10:20:43;8.70;99.90
52979;DHT22;63430;53.186;6.598;2023-04-08T10:22:51;8.70;99.90
52979;DHT22;63430;53.186;6.598;2023-04-08T10:27:40;8.60;99.90
52979;DHT22;63430;53.186;6.598;2023-04-08T10:29:43;8.60;99.90
52979;DHT22;63430;53.186;6.598;2023-04-08T10:31:48;8.70;99.90
52979;DHT22;63430;53.186;6.598;2023-04-08T10:33:52;8.70;99.90
52979;DHT22;63430;53.186;6.598;2023-04-08T10:35:58;8.70;99.90
52979;DHT22;63430;53.186;6.598;2023-04-08T10:38:02;8.80;99.90
52979;DHT22;63430;53.186;6.598;2023-04-08T10:40:05;8.90;99.90
52979;DHT22;63430;53.186;6.598;2023-04-08T10:42:08;8.90;99.90
52979;DHT22;63430;53.186;6.598;2023-04-08T10:44:27;8.90;99.90
52979;DHT22;63430;53.186;6.598;2023-04-08T10:46:36;9.00;99.90
52979;DHT22;63430;53.186;6.598;2023-04-08T10:48:39;9.10;99.90
52979;DHT22;63430;53.186;6.598;2023-04-08T10:50:42;9.10;99.90
52979;DHT22;63430;53.186;6.598;2023-04-08T10:52:56;9.10;99.90
52979;DHT22;63430;53.186;6.598;2023-04-08T10:54:59;9.00;99.90
52979;DHT22;63430;53.186;6.598;2023-04-08T10:57:01;8.90;99.90
52979;DHT22;63430;53.186;6.598;2023-04-08T10:59:10;8.90;99.90
52979;DHT22;63430;53.186;6.598;2023-04-08T11:01:15;8.90;99.90
52979;DHT22;63430;53.186;6.598;2023-04-08T11:03:26;8.90;99.90
52979;DHT22;63430;53.186;6.598;2023-04-08T11:05:29;9.00;99.90
52979;DHT22;63430;53.186;6.598;2023-04-08T11:07:32;9.00;99.90
52979;DHT22;63430;53.186;6.598;2023-04-08T11:09:40;9.00;99.90
52979;DHT22;63430;53.186;6.598;2023-04-08T11:11:44;9.10;99.90
52979;DHT22;63430;53.186;6.598;2023-04-08T11:13:47;9.20;99.90
52979;DHT22;63430;53.186;6.598;2023-04-08T11:15:54;9.20;99.90
52979;DHT22;63430;53.186;6.598;2023-04-08T11:18:06;9.30;99.90
52979;DHT22;63430;53.186;6.598;2023-04-08T11:20:10;9.30;99.90
52979;DHT22;63430;53.186;6.598;2023-04-08T11:22:12;9.30;99.90
52979;DHT22;63430;53.186;6.598;2023-04-08T11:24:16;9.40;99.90
52979;DHT22;63430;53.186;6.598;2023-04-08T11:26:19;9.40;99.90
52979;DHT22;63430;53.186;6.598;2023-04-08T11:28:22;9.50;99.90
52979;DHT22;63430;53.186;6.598;2023-04-08T11:30:26;9.50;99.90
52979;DHT22;63430;53.186;6.598;2023-04-08T11:32:30;9.60;99.90
52979;DHT22;63430;53.186;6.598;2023-04-08T11:34:38;9.60;99.90
52979;DHT22;63430;53.186;6.598;2023-04-08T11:36:41;9.60;99.90
52979;DHT22;63430;53.186;6.598;2023-04-08T11:38:44;9.60;99.90
52979;DHT22;63430;53.186;6.598;2023-04-08T11:40:52;9.70;99.90
52979;DHT22;63430;53.186;6.598;2023-04-08T11:42:55;9.60;99.90
52979;DHT22;63430;53.186;6.598;2023-04-08T11:44:58;9.60;99.90
52979;DHT22;63430;53.186;6.598;2023-04-08T11:47:01;9.70;99.90
52979;DHT22;63430;53.186;6.598;2023-04-08T11:49:04;9.70;99.90
52979;DHT22;63430;53.186;6.598;2023-04-08T11:51:15;9.70;99.90
52979;DHT22;63430;53.186;6.598;2023-04-08T11:53:18;9.70;99.90
52979;DHT22;63430;53.186;6.598;2023-04-08T11:55:23;9.70;99.90
52979;DHT22;63430;53.186;6.598;2023-04-08T11:57:27;9.70;99.90
52979;DHT22;63430;53.186;6.598;2023-04-08T11:59:33;9.60;99.90
52979;DHT22;63430;53.186;6.598;2023-04-08T12:01:36;9.60;99.90
52979;DHT22;63430;53.186;6.598;2023-04-08T12:03:53;9.70;99.90
52979;DHT22;63430;53.186;6.598;2023-04-08T12:05:56;9.70;99.90
52979;DHT22;63430;53.186;6.598;2023-04-08T12:08:01;9.80;99.90
52979;DHT22;63430;53.186;6.598;2023-04-08T12:10:06;9.80;99.90
52979;DHT22;63430;53.186;6.598;2023-04-08T12:12:08;9.80;99.90
52979;DHT22;63430;53.186;6.598;2023-04-08T12:14:11;9.80;99.90
52979;DHT22;63430;53.186;6.598;2023-04-08T12:16:14;9.90;99.90
52979;DHT22;63430;53.186;6.598;2023-04-08T12:18:16;9.90;99.90
52979;DHT22;63430;53.186;6.598;2023-04-08T12:20:19;9.90;99.90
52979;DHT22;63430;53.186;6.598;2023-04-08T12:22:28;9.90;99.90
52979;DHT22;63430;53.186;6.598;2023-04-08T12:24:33;10.00;99.90
52979;DHT22;63430;53.186;6.598;2023-04-08T12:26:36;10.00;99.90
52979;DHT22;63430;53.186;6.598;2023-04-08T12:28:38;10.00;99.90
52979;DHT22;63430;53.186;6.598;2023-04-08T12:30:41;10.00;99.90
52979;DHT22;63430;53.186;6.598;2023-04-08T12:32:44;9.90;99.90
52979;DHT22;63430;53.186;6.598;2023-04-08T12:34:47;9.90;99.90
52979;DHT22;63430;53.186;6.598;2023-04-08T12:36:50;9.90;99.90
52979;DHT22;63430;53.186;6.598;2023-04-08T12:38:52;10.00;99.90
52979;DHT22;63430;53.186;6.598;2023-04-08T12:40:57;10.00;99.90
52979;DHT22;63430;53.186;6.598;2023-04-08T12:43:00;10.10;99.90
52979;DHT22;63430;53.186;6.598;2023-04-08T12:45:03;10.10;99.90
52979;DHT22;63430;53.186;6.598;2023-04-08T12:47:06;10.10;99.90
52979;DHT22;63430;53.186;6.598;2023-04-08T12:49:12;10.20;99.90
52979;DHT22;63430;53.186;6.598;2023-04-08T12:51:15;10.00;99.90
52979;DHT22;63430;53.186;6.598;2023-04-08T12:53:19;10.10;99.90
52979;DHT22;63430;53.186;6.598;2023-04-08T12:55:22;10.10;99.90
52979;DHT22;63430;53.186;6.598;2023-04-08T12:57:31;10.10;99.90
52979;DHT22;63430;53.186;6.598;2023-04-08T12:59:34;10.20;99.90
52979;DHT22;63430;53.186;6.598;2023-04-08T13:01:43;10.30;99.90
52979;DHT22;63430;53.186;6.598;2023-04-08T13:03:47;10.30;99.90
52979;DHT22;63430;53.186;6.598;2023-04-08T13:05:50;10.40;99.90
52979;DHT22;63430;53.186;6.598;2023-04-08T13:07:53;10.60;99.90
52979;DHT22;63430;53.186;6.598;2023-04-08T13:09:55;10.50;99.90
52979;DHT22;63430;53.186;6.598;2023-04-08T13:11:58;10.50;99.90
52979;DHT22;63430;53.186;6.598;2023-04-08T13:14:04;10.50;99.90
52979;DHT22;63430;53.186;6.598;2023-04-08T13:16:16;10.50;99.90
52979;DHT22;63430;53.186;6.598;2023-04-08T13:18:19;10.60;99.90
52979;DHT22;63430;53.186;6.598;2023-04-08T13:20:29;10.60;99.90
52979;DHT22;63430;53.186;6.598;2023-04-08T13:22:33;10.60;99.90
52979;DHT22;63430;53.186;6.598;2023-04-08T13:24:39;10.70;99.90